Home > Products > Valid Products > MTR

000
SAUS43 KBIS 311154
MTRN60
METAR KN60 311152Z AUTO 15008G18KT M04/M06 A3049 RMK AO1 SLP353
T10391056 11033 21089 56009





000
SAUS43 KBIS 311054
MTRN60
METAR KN60 311052Z AUTO 16011KT M04/M06 A3049 RMK AO1 SLP354
T10391056





000
SAUS43 KBIS 311054
MTRN60
METAR KN60 311052Z AUTO 16011KT M04/M06 A3049 RMK AO1 SLP354
T10391056





000
SAUS43 KBIS 310954
MTRN60
METAR KN60 310952Z AUTO 15008KT M04/M06 A3051 RMK AO1 SLP359
T10391056





000
SAUS43 KBIS 310954
MTRN60
METAR KN60 310952Z AUTO 15008KT M04/M06 A3051 RMK AO1 SLP359
T10391056





000
SAUS43 KBIS 310853
MTRN60
METAR KN60 310852Z AUTO 13006KT M04/M06 A3052 RMK AO1 SLP362
T10441061 58009





000
SAUS43 KBIS 310754
MTRN60
METAR KN60 310752Z AUTO 12006KT M06/M08 A3053 RMK AO1 SLP369
T10611078





000
SAUS43 KBIS 310653
MTRN60
METAR KN60 310652Z AUTO 09003KT M08/M09 A3055 RMK AO1 SLP375
T10781089





000
SAUS43 KBIS 310554
MTRN60
METAR KN60 310552Z AUTO 00000KT M08/M09 A3055 RMK AO1 SLP375
T10781089 11006 21089 400171089 58000





000
SAUS43 KBIS 310454
MTRN60
METAR KN60 310452Z AUTO 00000KT M08/M09 A3055 RMK AO1 SLP377
T10781094





000
SAUS43 KBIS 310454
MTRN60
METAR KN60 310452Z AUTO 00000KT M08/M09 A3055 RMK AO1 SLP377
T10781094





000
SAUS43 KBIS 310354
MTRN60
METAR KN60 310352Z AUTO 00000KT M06/M07 A3056 RMK AO1 SLP378
T10611072





000
SAUS43 KBIS 310354
MTRN60
METAR KN60 310352Z AUTO 00000KT M06/M07 A3056 RMK AO1 SLP378
T10611072





000
SAUS43 KBIS 310253
MTRN60
METAR KN60 310252Z AUTO 00000KT M06/M07 A3055 RMK AO1 SLP375
T10561067 51011





000
SAUS43 KBIS 310154
MTRN60
METAR KN60 310152Z AUTO 00000KT M03/M06 A3054 RMK AO1 SLP371
T10331056





000
SAUS43 KBIS 310154
MTRN60
METAR KN60 310152Z AUTO 00000KT M03/M06 A3054 RMK AO1 SLP371
T10331056





000
SAUS43 KBIS 310054
MTRN60
METAR KN60 310052Z AUTO 06004KT M01/M06 A3053 RMK AO1 SLP365
T10111056





000
SAUS43 KBIS 302354
MTRN60
METAR KN60 302352Z AUTO 05006KT M01/M04 A3051 RMK AO1 SLP359
T10061044 10017 21006 53020





000
SAUS43 KBIS 302253
MTRN60
METAR KN60 302252Z AUTO 03007KT 00/M04 A3049 RMK AO1 SLP351
T00001044





000
SAUS43 KBIS 302154
MTRN60
METAR KN60 302152Z AUTO 03008KT 01/M04 A3047 RMK AO1 SLP344
T00061039





000
SAUS43 KBIS 302154
MTRN60
METAR KN60 302152Z AUTO 03008KT 01/M04 A3047 RMK AO1 SLP344
T00061039





000
SAUS43 KBIS 302053
MTRN60
METAR KN60 302052Z AUTO 03010KT 01/M03 A3045 RMK AO1 SLP336
T00111028 51015





000
SAUS43 KBIS 301954
MTRN60
METAR KN60 301952Z AUTO 03009KT 01/M03 A3043 RMK AO1 SLP330
T00111028





000
SAUS43 KBIS 301853
MTRN60
METAR KN60 301852Z AUTO 01008KT 01/M02 A3042 RMK AO1 SLP325
T00111022





000
SAUS43 KBIS 301754
MTRN60
METAR KN60 301752Z AUTO 02009G16KT 02/M02 A3040 RMK AO1 SLP318
T00171017 10017 21011 53025





000
SAUS43 KBIS 301653
MTRN60
METAR KN60 301652Z AUTO 01009KT 01/M01 A3037 RMK AO1 SLP308
T00111011





000
SAUS43 KBIS 301653
MTRN60
METAR KN60 301652Z AUTO 01009KT 01/M01 A3037 RMK AO1 SLP308
T00111011





000
SAUS43 KBIS 301553
MTRN60
METAR KN60 301552Z AUTO 01007KT 01/M01 A3035 RMK AO1 SLP300
T00061011





000
SAUS43 KBIS 301458
MTRN60
METAR KN60 301452Z AUTO 02007KT 00/M01 A3033 RMK AO1 SLP290
T00001011 53038





000
SAUS43 KBIS 301353
MTRN60
METAR KN60 301352Z AUTO 02006KT 01/M01 A3029 RMK AO1 SLP276
T00061011





000
SAUS43 KBIS 301254
MTRN60
METAR KN60 301252Z AUTO 01004KT M01/M02 A3025 RMK AO1 SLP263
T10111022





000
SAUS43 KBIS 301154
MTRN60
METAR KN60 301152Z AUTO 36008KT M01/M02 A3021 RMK AO1 SLP248 70005
T10061017 10017 21006 51040





000
SAUS43 KBIS 301054
MTRN60
METAR KN60 301052Z AUTO 35011KT M01/M01 A3018 RMK AO1 SLP237
T10061011





000
SAUS43 KBIS 301054
MTRN60
METAR KN60 301052Z AUTO 35011KT M01/M01 A3018 RMK AO1 SLP237
T10061011





000
SAUS43 KBIS 300954
MTRN60
METAR KN60 300952Z AUTO 35013KT M01/M02 A3013 RMK AO1 SLP221
T10061017





000
SAUS43 KBIS 300854
MTRN60
METAR KN60 300852Z AUTO 33010KT 00/M01 A3009 RMK AO1 SLP206
T00001011 53029





000
SAUS43 KBIS 300754
MTRN60
METAR KN60 300752Z AUTO 33008KT 00/M01 A3005 RMK AO1 SLP194
T00001011





000
SAUS43 KBIS 300653
MTRN60
METAR KN60 300652Z AUTO 32006KT 01/00 A3002 RMK AO1 SLP184 T00110000





000
SAUS43 KBIS 300554
MTRN60
METAR KN60 300552Z AUTO 32009KT 02/01 A2999 RMK AO1 SLP174 T00170006
10067 20011 400721022 53025





000
SAUS43 KBIS 300453
MTRN60
METAR KN60 300452Z AUTO 32007KT 02/01 A2996 RMK AO1 SLP164 T00220011





000
SAUS43 KBIS 300453
MTRN60
METAR KN60 300452Z AUTO 32007KT 02/01 A2996 RMK AO1 SLP164 T00220011





000
SAUS43 KBIS 300354
MTRN60
METAR KN60 300352Z AUTO 33003KT 02/02 A2994 RMK AO1 SLP157 T00220017





000
SAUS43 KBIS 300254
MTRN60
METAR KN60 300252Z AUTO 29007KT 05/04 A2992 RMK AO1 SLP147 T00500039
51009





000
SAUS43 KBIS 300154
MTRN60
METAR KN60 300152Z AUTO 28007KT 04/00 A2991 RMK AO1 SLP147 T00440000





000
SAUS43 KBIS 300053
MTRN60
METAR KN60 300052Z AUTO 25004KT 06/00 A2990 RMK AO1 SLP143 T00560000





000
SAUS43 KBIS 292354
MTRN60
METAR KN60 292352Z AUTO 21004KT 07/00 A2989 RMK AO1 SLP138 P0003
60005 T00670000 10072 20050 50000





000
SAUS43 KBIS 292253
MTRN60
METAR KN60 292252Z AUTO 23004KT 07/00 A2989 RMK AO1 SLP140 P0002
T00670000





000
SAUS43 KBIS 292253
MTRN60
METAR KN60 292252Z AUTO 23004KT 07/00 A2989 RMK AO1 SLP140 P0002
T00670000





000
SAUS43 KBIS 292154
MTRN60
METAR KN60 292152Z AUTO 23005KT 07/00 A2989 RMK AO1 SLP137 T00670000





000
SAUS43 KBIS 292054
MTRN60
METAR KN60 292052Z AUTO 24007KT 07/00 A2989 RMK AO1 SLP135 T00720000
55014





000
SAUS43 KBIS 291954
MTRN60
METAR KN60 291952Z AUTO 20009KT 06/M01 A2988 RMK AO1 SLP136
T00561006





000
SAUS43 KBIS 291853
MTRN60
METAR KN60 291852Z AUTO 21010KT 06/00 A2991 RMK AO1 SLP145 T00610000





000
SAUS43 KBIS 291754
MTRN60
METAR KN60 291752Z AUTO 18011KT 06/00 A2993 RMK AO1 SLP152 T00560000
10056 21011 56020





000
SAUS43 KBIS 291653
MTRN60
METAR KN60 291652Z AUTO 16011KT 04/M01 A2995 RMK AO1 SLP158
T00391006





000
SAUS43 KBIS 291554
MTRN60
METAR KN60 291552Z AUTO 18009KT 03/M01 A2997 RMK AO1 SLP168
T00281006





000
SAUS43 KBIS 291453
MTRN60
METAR KN60 291452Z AUTO 17009KT 02/M01 A2999 RMK AO1 SLP174
T00221006 56018





000
SAUS43 KBIS 291354
MTRN60
METAR KN60 291352Z AUTO 15005KT 01/M01 A3000 RMK AO1 SLP180
T00061011





000
SAUS43 KBIS 291253
MTRN60
METAR KN60 291252Z AUTO 17006KT 00/M01 A3002 RMK AO1 SLP186
T00001011





000
SAUS43 KBIS 291154
MTRN60
METAR KN60 291152Z AUTO 20007KT M01/M02 A3005 RMK AO1 SLP196
T10061022 10028 21022 58009





000
SAUS43 KBIS 291054
MTRN60
METAR KN60 291052Z AUTO 20005KT M01/M02 A3006 RMK AO1 SLP201
T10111022





000
SAUS43 KBIS 290954
MTRN60
METAR KN60 290952Z AUTO 12003KT 02/M01 A3007 RMK AO1 SLP200
T00171006





000
SAUS43 KBIS 290853
MTRN60
METAR KN60 290852Z AUTO 00000KT 02/M01 A3008 RMK AO1 SLP203
T00221006 56008





000
SAUS43 KBIS 290754
MTRN60
METAR KN60 290752Z AUTO 33003KT 02/M01 A3008 RMK AO1 SLP205
T00221011





000
SAUS43 KBIS 290653
MTRN60
METAR KN60 290652Z AUTO 28003KT 03/M02 A3009 RMK AO1 SLP208
T00281022





000
SAUS43 KBIS 290554
MTRN60
METAR KN60 290552Z AUTO 29004KT 03/M01 A3010 RMK AO1 SLP212
T00281006 10033 20022 400500006 58003





000
SAUS43 KBIS 290453
MTRN60
METAR KN60 290452Z AUTO 00000KT 03/00 A3011 RMK AO1 SLP216 T00280000





000
SAUS43 KBIS 290453
MTRN60
METAR KN60 290452Z AUTO 00000KT 03/00 A3011 RMK AO1 SLP216 T00280000





000
SAUS43 KBIS 290354
MTRN60
METAR KN60 290352Z AUTO 00000KT 03/00 A3012 RMK AO1 SLP218 T00280000





000
SAUS43 KBIS 290253
MTRN60
METAR KN60 290252Z AUTO 32004KT 03/M01 A3011 RMK AO1 SLP218
T00281006 51009





000
SAUS43 KBIS 290154
MTRN60
METAR KN60 290152Z AUTO 32006KT 03/M01 A3011 RMK AO1 SLP215
T00281006





000
SAUS43 KBIS 290053
MTRN60
METAR KN60 290052Z AUTO 34009KT 03/M01 A3010 RMK AO1 SLP212
T00281006





000
SAUS43 KBIS 282354
MTRN60
METAR KN60 282352Z AUTO 33011KT 03/M01 A3009 RMK AO1 SLP208
T00331006 10050 20033 51014





000
SAUS43 KBIS 282253
MTRN60
METAR KN60 282252Z AUTO 32012KT 04/M01 A3007 RMK AO1 SLP203
T00391006





000
SAUS43 KBIS 282154
MTRN60
METAR KN60 282152Z AUTO 32014KT 04/00 A3006 RMK AO1 SLP198 T00390000





000
SAUS43 KBIS 282053
MTRN60
METAR KN60 282052Z AUTO 31016KT 04/00 A3004 RMK AO1 SLP191 T00440000
53004





000
SAUS43 KBIS 281954
MTRN60
METAR KN60 281952Z AUTO 31015KT 04/00 A3004 RMK AO1 SLP190 T00440000





000
SAUS43 KBIS 281853
MTRN60
METAR KN60 281852Z AUTO 33017G23KT 04/00 A3003 RMK AO1 SLP188
T00440000





000
SAUS43 KBIS 281754
MTRN60
METAR KN60 281752Z AUTO 33015KT 04/00 A3003 RMK AO1 SLP187 T00390000
10039 20006 51012





000
SAUS43 KBIS 281653
MTRN60
METAR KN60 281652Z AUTO 33016KT 03/00 A3002 RMK AO1 SLP186 T00280000





000
SAUS43 KBIS 281653
MTRN60
METAR KN60 281652Z AUTO 33016KT 03/00 A3002 RMK AO1 SLP186 T00280000





000
SAUS43 KBIS 281554
MTRN60
METAR KN60 281552Z AUTO 33012KT 02/00 A3001 RMK AO1 SLP181 T00170000





000
SAUS43 KBIS 281554
MTRN60
METAR KN60 281552Z AUTO 33012KT 02/00 A3001 RMK AO1 SLP181 T00170000





000
SAUS43 KBIS 281453
MTRN60
METAR KN60 281452Z AUTO 32016KT 02/00 A2999 RMK AO1 PK WND
32026/1409 SLP174 T00170000 53020





000
SAUS43 KBIS 281354
MTRN60
METAR KN60 281352Z AUTO 32017G24KT 02/M01 A2997 RMK AO1 SLP165
T00171006





000
SAUS43 KBIS 281253
MTRN60
METAR KN60 281252Z AUTO 32019G27KT 02/M01 A2994 RMK AO1 PK WND
32027/1250 SLP157 T00171006





    US Dept of Commerce
    National Oceanic and Atmospheric Administration
    National Weather Service
    1325 East West Highway
    Silver Spring, MD 20910
    Page Author: NWS Internet Services Team
Disclaimer
Information Quality
Credits
Glossary
Privacy Policy
Freedom of Information Act (FOIA)
About Us
Career Opportunities